sensor_id;sensor_type;location;lat;lon;timestamp;pressure;altitude;pressure_sealevel;temperature;humidity
34177;BME280;20450;49.074;9.158;2023-04-06T00:01:12;100080.84;;;2.69;71.95
34177;BME280;20450;49.074;9.158;2023-04-06T00:03:39;100074.88;;;2.75;70.72
34177;BME280;20450;49.074;9.158;2023-04-06T00:06:06;100071.22;;;2.76;70.55
34177;BME280;20450;49.074;9.158;2023-04-06T00:11:53;100076.28;;;2.61;72.22
34177;BME280;20450;49.074;9.158;2023-04-06T00:14:20;100076.66;;;2.66;71.96
34177;BME280;20450;49.074;9.158;2023-04-06T00:16:47;100078.03;;;2.70;72.02
34177;BME280;20450;49.074;9.158;2023-04-06T00:19:14;100076.56;;;2.76;71.59
34177;BME280;20450;49.074;9.158;2023-04-06T00:21:42;100068.94;;;2.81;71.45
34177;BME280;20450;49.074;9.158;2023-04-06T00:24:09;100070.44;;;2.83;71.16
34177;BME280;20450;49.074;9.158;2023-04-06T00:26:37;100067.28;;;2.80;70.31
34177;BME280;20450;49.074;9.158;2023-04-06T00:29:04;100072.53;;;2.72;70.67
34177;BME280;20450;49.074;9.158;2023-04-06T00:31:31;100068.22;;;2.18;71.92
34177;BME280;20450;49.074;9.158;2023-04-06T00:33:58;100073.63;;;2.26;73.44
34177;BME280;20450;49.074;9.158;2023-04-06T00:36:26;100068.97;;;2.28;73.62
34177;BME280;20450;49.074;9.158;2023-04-06T00:38:53;100072.38;;;2.38;72.42
34177;BME280;20450;49.074;9.158;2023-04-06T00:41:20;100070.03;;;2.18;72.70
34177;BME280;20450;49.074;9.158;2023-04-06T00:44:14;100066.19;;;2.02;72.60
34177;BME280;20450;49.074;9.158;2023-04-06T00:46:41;100065.50;;;1.83;72.80
34177;BME280;20450;49.074;9.158;2023-04-06T00:49:09;100068.81;;;1.67;73.24
34177;BME280;20450;49.074;9.158;2023-04-06T00:51:36;100056.19;;;1.69;72.94
34177;BME280;20450;49.074;9.158;2023-04-06T00:54:03;100061.44;;;1.79;72.71
34177;BME280;20450;49.074;9.158;2023-04-06T00:56:32;100061.00;;;1.83;72.57
34177;BME280;20450;49.074;9.158;2023-04-06T00:59:00;100063.22;;;1.61;73.24
34177;BME280;20450;49.074;9.158;2023-04-06T01:01:28;100055.06;;;1.72;73.34
34177;BME280;20450;49.074;9.158;2023-04-06T01:04:01;100053.09;;;1.74;71.81
34177;BME280;20450;49.074;9.158;2023-04-06T01:06:31;100056.09;;;1.61;70.98
34177;BME280;20450;49.074;9.158;2023-04-06T01:09:01;100053.69;;;1.68;71.19
34177;BME280;20450;49.074;9.158;2023-04-06T01:11:28;100049.81;;;1.80;71.80
34177;BME280;20450;49.074;9.158;2023-04-06T01:13:56;100057.28;;;1.94;71.95
34177;BME280;20450;49.074;9.158;2023-04-06T01:16:26;100046.28;;;2.07;71.82
34177;BME280;20450;49.074;9.158;2023-04-06T01:19:10;100048.25;;;2.22;71.60
34177;BME280;20450;49.074;9.158;2023-04-06T01:21:43;100041.34;;;2.29;71.46
34177;BME280;20450;49.074;9.158;2023-04-06T01:24:32;100037.03;;;2.01;72.23
34177;BME280;20450;49.074;9.158;2023-04-06T01:27:06;100035.53;;;1.98;72.55
34177;BME280;20450;49.074;9.158;2023-04-06T01:29:53;100027.00;;;1.95;72.97
34177;BME280;20450;49.074;9.158;2023-04-06T01:32:49;100041.41;;;2.02;73.83
34177;BME280;20450;49.074;9.158;2023-04-06T01:35:27;100025.47;;;2.10;73.15
34177;BME280;20450;49.074;9.158;2023-04-06T01:38:08;100031.50;;;2.12;73.14
34177;BME280;20450;49.074;9.158;2023-04-06T01:40:38;100038.03;;;1.82;75.30
34177;BME280;20450;49.074;9.158;2023-04-06T01:43:05;100037.28;;;1.90;74.89
34177;BME280;20450;49.074;9.158;2023-04-06T01:45:39;100032.63;;;1.92;74.11
34177;BME280;20450;49.074;9.158;2023-04-06T01:48:14;100032.09;;;1.88;73.87
34177;BME280;20450;49.074;9.158;2023-04-06T01:50:41;100027.16;;;1.93;73.57
34177;BME280;20450;49.074;9.158;2023-04-06T01:53:11;100021.81;;;1.93;72.80
34177;BME280;20450;49.074;9.158;2023-04-06T01:55:41;100028.00;;;1.94;73.09
34177;BME280;20450;49.074;9.158;2023-04-06T01:58:34;100021.22;;;1.99;72.29
34177;BME280;20450;49.074;9.158;2023-04-06T02:01:02;100022.66;;;1.94;72.20
34177;BME280;20450;49.074;9.158;2023-04-06T02:03:40;100026.53;;;1.99;72.02
34177;BME280;20450;49.074;9.158;2023-04-06T02:06:09;100023.28;;;2.05;71.97
34177;BME280;20450;49.074;9.158;2023-04-06T02:08:39;100026.94;;;2.04;71.76
34177;BME280;20450;49.074;9.158;2023-04-06T02:11:08;100016.81;;;2.08;71.80
34177;BME280;20450;49.074;9.158;2023-04-06T02:13:48;100022.41;;;1.87;73.13
34177;BME280;20450;49.074;9.158;2023-04-06T02:16:16;100022.22;;;1.98;72.54
34177;BME280;20450;49.074;9.158;2023-04-06T02:18:45;100027.47;;;2.08;72.60
34177;BME280;20450;49.074;9.158;2023-04-06T02:21:11;100019.34;;;2.10;72.39
34177;BME280;20450;49.074;9.158;2023-04-06T02:23:38;100021.97;;;1.92;72.45
34177;BME280;20450;49.074;9.158;2023-04-06T02:26:06;100024.31;;;1.77;73.49
34177;BME280;20450;49.074;9.158;2023-04-06T02:28:34;100018.19;;;1.50;74.96
34177;BME280;20450;49.074;9.158;2023-04-06T02:31:01;100009.38;;;1.67;74.16
34177;BME280;20450;49.074;9.158;2023-04-06T02:33:28;100011.56;;;1.81;73.70
34177;BME280;20450;49.074;9.158;2023-04-06T02:35:56;100012.84;;;1.77;74.30
34177;BME280;20450;49.074;9.158;2023-04-06T02:38:23;100018.78;;;1.71;74.13
34177;BME280;20450;49.074;9.158;2023-04-06T02:40:51;100016.78;;;1.73;73.79
34177;BME280;20450;49.074;9.158;2023-04-06T02:43:24;100012.84;;;1.77;73.40
34177;BME280;20450;49.074;9.158;2023-04-06T02:46:01;100009.22;;;1.68;74.85
34177;BME280;20450;49.074;9.158;2023-04-06T02:48:32;99999.44;;;1.69;75.98
34177;BME280;20450;49.074;9.158;2023-04-06T02:50:59;100003.41;;;1.65;75.94
34177;BME280;20450;49.074;9.158;2023-04-06T02:53:26;100006.06;;;1.65;75.05
34177;BME280;20450;49.074;9.158;2023-04-06T02:55:53;100006.28;;;1.71;75.46
34177;BME280;20450;49.074;9.158;2023-04-06T02:58:22;100008.03;;;1.80;75.31
34177;BME280;20450;49.074;9.158;2023-04-06T03:04:12;100007.28;;;2.05;75.08
34177;BME280;20450;49.074;9.158;2023-04-06T03:11:14;100001.81;;;1.89;72.26
34177;BME280;20450;49.074;9.158;2023-04-06T03:14:46;99999.13;;;1.72;74.86
34177;BME280;20450;49.074;9.158;2023-04-06T03:17:16;99996.16;;;1.75;76.04
34177;BME280;20450;49.074;9.158;2023-04-06T03:19:43;99997.97;;;1.74;76.24
34177;BME280;20450;49.074;9.158;2023-04-06T03:25:34;99997.63;;;2.04;76.75
34177;BME280;20450;49.074;9.158;2023-04-06T03:28:04;100002.41;;;2.01;77.26
34177;BME280;20450;49.074;9.158;2023-04-06T03:30:36;100001.91;;;2.15;76.87
34177;BME280;20450;49.074;9.158;2023-04-06T03:33:05;100004.03;;;2.29;76.49
34177;BME280;20450;49.074;9.158;2023-04-06T03:35:39;100009.25;;;2.39;75.96
34177;BME280;20450;49.074;9.158;2023-04-06T03:38:07;100000.94;;;2.42;74.90
34177;BME280;20450;49.074;9.158;2023-04-06T03:40:35;100005.81;;;2.46;73.73
34177;BME280;20450;49.074;9.158;2023-04-06T03:43:02;100003.38;;;2.35;72.51
34177;BME280;20450;49.074;9.158;2023-04-06T03:45:29;100025.72;;;2.17;71.55
34177;BME280;20450;49.074;9.158;2023-04-06T03:47:57;100014.59;;;2.21;71.64
34177;BME280;20450;49.074;9.158;2023-04-06T03:50:25;100016.13;;;2.24;72.00
34177;BME280;20450;49.074;9.158;2023-04-06T03:52:53;100018.25;;;2.02;72.60
34177;BME280;20450;49.074;9.158;2023-04-06T03:55:20;100025.41;;;1.84;74.17
34177;BME280;20450;49.074;9.158;2023-04-06T03:57:47;100020.25;;;1.83;74.76
34177;BME280;20450;49.074;9.158;2023-04-06T04:00:15;100029.50;;;1.96;74.65
34177;BME280;20450;49.074;9.158;2023-04-06T04:02:42;100029.28;;;2.08;74.24
34177;BME280;20450;49.074;9.158;2023-04-06T04:05:09;100024.88;;;2.16;74.33
34177;BME280;20450;49.074;9.158;2023-04-06T04:07:38;100024.25;;;2.22;73.61
34177;BME280;20450;49.074;9.158;2023-04-06T04:10:06;100027.78;;;2.23;73.58
34177;BME280;20450;49.074;9.158;2023-04-06T04:12:38;100029.84;;;2.29;73.83
34177;BME280;20450;49.074;9.158;2023-04-06T04:15:05;100032.56;;;2.19;74.09
34177;BME280;20450;49.074;9.158;2023-04-06T04:17:33;100020.59;;;2.05;74.58
34177;BME280;20450;49.074;9.158;2023-04-06T04:20:00;100028.59;;;2.05;75.10
34177;BME280;20450;49.074;9.158;2023-04-06T04:22:28;100029.06;;;2.01;75.50
34177;BME280;20450;49.074;9.158;2023-04-06T04:24:56;100033.56;;;2.00;75.51
34177;BME280;20450;49.074;9.158;2023-04-06T04:27:24;100031.06;;;1.99;75.78
34177;BME280;20450;49.074;9.158;2023-04-06T04:29:52;100024.19;;;1.96;74.91
34177;BME280;20450;49.074;9.158;2023-04-06T04:32:19;100034.16;;;1.94;74.18
34177;BME280;20450;49.074;9.158;2023-04-06T04:34:46;100037.28;;;1.90;74.29
34177;BME280;20450;49.074;9.158;2023-04-06T04:37:25;100034.03;;;1.96;74.24
34177;BME280;20450;49.074;9.158;2023-04-06T04:39:55;100041.47;;;1.92;74.40
34177;BME280;20450;49.074;9.158;2023-04-06T04:42:23;100035.91;;;1.86;74.57
34177;BME280;20450;49.074;9.158;2023-04-06T04:44:53;100038.94;;;1.91;74.45
34177;BME280;20450;49.074;9.158;2023-04-06T04:47:32;100037.94;;;1.92;74.87
34177;BME280;20450;49.074;9.158;2023-04-06T04:49:59;100033.88;;;1.97;75.07
34177;BME280;20450;49.074;9.158;2023-04-06T04:52:27;100042.16;;;1.94;75.87
34177;BME280;20450;49.074;9.158;2023-04-06T04:55:01;100043.91;;;1.86;75.71
34177;BME280;20450;49.074;9.158;2023-04-06T04:57:30;100045.28;;;1.90;75.27
34177;BME280;20450;49.074;9.158;2023-04-06T04:59:57;100043.38;;;2.00;74.72
34177;BME280;20450;49.074;9.158;2023-04-06T05:02:49;100048.78;;;2.08;74.81
34177;BME280;20450;49.074;9.158;2023-04-06T05:05:25;100048.03;;;2.16;74.55
34177;BME280;20450;49.074;9.158;2023-04-06T05:07:53;100053.13;;;2.27;74.09
34177;BME280;20450;49.074;9.158;2023-04-06T05:10:31;100052.16;;;2.28;73.67
34177;BME280;20450;49.074;9.158;2023-04-06T05:13:01;100047.88;;;2.52;72.73
34177;BME280;20450;49.074;9.158;2023-04-06T05:15:28;100053.81;;;2.46;73.36
34177;BME280;20450;49.074;9.158;2023-04-06T05:18:01;100062.13;;;2.86;72.58
34177;BME280;20450;49.074;9.158;2023-04-06T05:20:32;100060.25;;;3.30;71.07
34177;BME280;20450;49.074;9.158;2023-04-06T05:23:00;100062.41;;;3.60;69.76
34177;BME280;20450;49.074;9.158;2023-04-06T05:25:29;100053.19;;;4.04;67.47
34177;BME280;20450;49.074;9.158;2023-04-06T05:28:04;100060.13;;;4.39;63.96
34177;BME280;20450;49.074;9.158;2023-04-06T05:30:35;100064.25;;;4.09;65.03
34177;BME280;20450;49.074;9.158;2023-04-06T05:33:03;100065.81;;;4.52;64.40
34177;BME280;20450;49.074;9.158;2023-04-06T05:35:54;100061.41;;;5.31;61.29
34177;BME280;20450;49.074;9.158;2023-04-06T05:38:26;100063.88;;;5.95;58.88
34177;BME280;20450;49.074;9.158;2023-04-06T05:40:56;100064.47;;;6.58;56.66
34177;BME280;20450;49.074;9.158;2023-04-06T05:43:29;100062.78;;;7.17;54.79
34177;BME280;20450;49.074;9.158;2023-04-06T05:45:58;100068.75;;;7.70;52.60
34177;BME280;20450;49.074;9.158;2023-04-06T05:48:26;100058.50;;;8.24;51.37
34177;BME280;20450;49.074;9.158;2023-04-06T05:50:53;100066.28;;;8.76;50.49
34177;BME280;20450;49.074;9.158;2023-04-06T05:53:26;100059.25;;;9.02;49.20
34177;BME280;20450;49.074;9.158;2023-04-06T05:56:00;100060.50;;;9.27;48.02
34177;BME280;20450;49.074;9.158;2023-04-06T05:58:29;100072.16;;;9.62;47.04
34177;BME280;20450;49.074;9.158;2023-04-06T06:00:57;100070.63;;;9.87;47.15
34177;BME280;20450;49.074;9.158;2023-04-06T06:03:26;100064.88;;;9.96;45.69
34177;BME280;20450;49.074;9.158;2023-04-06T06:05:59;100071.66;;;9.86;45.49
34177;BME280;20450;49.074;9.158;2023-04-06T06:08:33;100071.88;;;10.25;44.97
34177;BME280;20450;49.074;9.158;2023-04-06T06:11:03;100065.28;;;10.54;44.02
34177;BME280;20450;49.074;9.158;2023-04-06T06:13:31;100070.56;;;10.81;42.54
34177;BME280;20450;49.074;9.158;2023-04-06T06:16:00;100070.97;;;11.24;41.39
34177;BME280;20450;49.074;9.158;2023-04-06T06:18:27;100072.63;;;11.57;40.94
34177;BME280;20450;49.074;9.158;2023-04-06T06:24:42;100066.28;;;12.47;38.38
34177;BME280;20450;49.074;9.158;2023-04-06T06:27:11;100074.22;;;12.48;38.60
34177;BME280;20450;49.074;9.158;2023-04-06T06:29:39;100064.31;;;12.60;38.73
34177;BME280;20450;49.074;9.158;2023-04-06T06:32:06;100063.84;;;12.70;38.09
34177;BME280;20450;49.074;9.158;2023-04-06T06:34:34;100068.09;;;12.90;38.06
34177;BME280;20450;49.074;9.158;2023-04-06T06:37:04;100061.03;;;13.14;37.28
34177;BME280;20450;49.074;9.158;2023-04-06T06:39:33;100068.34;;;13.62;36.34
34177;BME280;20450;49.074;9.158;2023-04-06T06:42:01;100078.06;;;14.06;36.13
34177;BME280;20450;49.074;9.158;2023-04-06T06:44:48;100071.22;;;14.04;36.01
34177;BME280;20450;49.074;9.158;2023-04-06T06:47:17;100070.16;;;14.05;35.83
34177;BME280;20450;49.074;9.158;2023-04-06T06:49:44;100067.91;;;14.38;34.54
34177;BME280;20450;49.074;9.158;2023-04-06T06:52:11;100070.69;;;14.79;34.15
34177;BME280;20450;49.074;9.158;2023-04-06T06:54:40;100064.97;;;15.21;32.83
34177;BME280;20450;49.074;9.158;2023-04-06T06:57:12;100070.44;;;15.33;32.07
34177;BME280;20450;49.074;9.158;2023-04-06T06:59:41;100081.03;;;15.76;31.87
34177;BME280;20450;49.074;9.158;2023-04-06T07:02:10;100075.72;;;16.32;30.49
34177;BME280;20450;49.074;9.158;2023-04-06T07:04:37;100070.75;;;16.29;30.86
34177;BME280;20450;49.074;9.158;2023-04-06T07:07:04;100065.63;;;16.72;30.02
34177;BME280;20450;49.074;9.158;2023-04-06T07:09:31;100062.53;;;16.80;30.84
34177;BME280;20450;49.074;9.158;2023-04-06T07:11:59;100074.28;;;16.97;29.58
34177;BME280;20450;49.074;9.158;2023-04-06T07:14:26;100066.88;;;17.09;29.09
34177;BME280;20450;49.074;9.158;2023-04-06T07:16:54;100076.19;;;15.54;32.09
34177;BME280;20450;49.074;9.158;2023-04-06T07:19:24;100057.19;;;15.36;33.63
34177;BME280;20450;49.074;9.158;2023-04-06T07:21:51;100072.16;;;16.31;31.77
34177;BME280;20450;49.074;9.158;2023-04-06T07:24:18;100068.72;;;15.50;32.98
34177;BME280;20450;49.074;9.158;2023-04-06T07:26:46;100064.66;;;16.38;31.74
34177;BME280;20450;49.074;9.158;2023-04-06T07:29:13;100070.97;;;15.53;32.97
34177;BME280;20450;49.074;9.158;2023-04-06T07:31:41;100071.53;;;15.90;33.07
34177;BME280;20450;49.074;9.158;2023-04-06T07:34:08;100071.91;;;16.44;31.13
34177;BME280;20450;49.074;9.158;2023-04-06T07:36:39;100076.53;;;17.00;32.74
34177;BME280;20450;49.074;9.158;2023-04-06T07:39:07;100068.81;;;17.58;33.47
34177;BME280;20450;49.074;9.158;2023-04-06T07:41:35;100065.56;;;17.99;28.45
34177;BME280;20450;49.074;9.158;2023-04-06T07:44:04;100069.44;;;18.89;27.60
34177;BME280;20450;49.074;9.158;2023-04-06T07:46:38;100069.47;;;19.52;26.08
34177;BME280;20450;49.074;9.158;2023-04-06T07:49:06;100078.78;;;19.52;25.91
34177;BME280;20450;49.074;9.158;2023-04-06T07:51:35;100067.53;;;19.85;25.44
34177;BME280;20450;49.074;9.158;2023-04-06T07:54:06;100064.47;;;19.13;27.50
34177;BME280;20450;49.074;9.158;2023-04-06T07:56:33;100062.38;;;18.45;27.76
34177;BME280;20450;49.074;9.158;2023-04-06T07:59:00;100054.09;;;19.20;27.30
34177;BME280;20450;49.074;9.158;2023-04-06T08:01:28;100055.44;;;19.44;26.32
34177;BME280;20450;49.074;9.158;2023-04-06T08:03:56;100059.50;;;19.36;26.56
34177;BME280;20450;49.074;9.158;2023-04-06T08:06:24;100056.53;;;18.58;28.23
34177;BME280;20450;49.074;9.158;2023-04-06T08:08:51;100053.56;;;17.12;29.61
34177;BME280;20450;49.074;9.158;2023-04-06T08:11:20;100056.78;;;16.65;30.90
34177;BME280;20450;49.074;9.158;2023-04-06T08:13:47;100057.41;;;16.83;30.20
34177;BME280;20450;49.074;9.158;2023-04-06T08:16:14;100050.25;;;16.66;31.42
34177;BME280;20450;49.074;9.158;2023-04-06T08:18:41;100054.63;;;17.11;30.26
34177;BME280;20450;49.074;9.158;2023-04-06T08:21:08;100049.28;;;17.88;29.36
34177;BME280;20450;49.074;9.158;2023-04-06T08:23:35;100046.50;;;17.00;29.21
34177;BME280;20450;49.074;9.158;2023-04-06T08:26:02;100054.84;;;16.37;31.27
34177;BME280;20450;49.074;9.158;2023-04-06T08:28:31;100042.19;;;18.08;29.33
34177;BME280;20450;49.074;9.158;2023-04-06T08:30:58;100046.06;;;19.35;26.00
34177;BME280;20450;49.074;9.158;2023-04-06T08:33:25;100048.44;;;19.63;26.06
34177;BME280;20450;49.074;9.158;2023-04-06T08:35:53;100044.69;;;20.16;24.85
34177;BME280;20450;49.074;9.158;2023-04-06T08:38:20;100046.75;;;19.57;25.52
34177;BME280;20450;49.074;9.158;2023-04-06T08:40:47;100045.41;;;18.43;27.71
34177;BME280;20450;49.074;9.158;2023-04-06T08:43:17;100042.16;;;18.46;26.23
34177;BME280;20450;49.074;9.158;2023-04-06T08:45:50;100049.31;;;17.38;27.65
34177;BME280;20450;49.074;9.158;2023-04-06T08:48:18;100045.09;;;17.30;27.43
34177;BME280;20450;49.074;9.158;2023-04-06T08:50:46;100041.94;;;18.31;26.73
34177;BME280;20450;49.074;9.158;2023-04-06T08:53:14;100046.28;;;17.18;26.82
34177;BME280;20450;49.074;9.158;2023-04-06T08:55:43;100046.97;;;18.87;26.57
34177;BME280;20450;49.074;9.158;2023-04-06T08:58:13;100035.53;;;18.69;25.65
34177;BME280;20450;49.074;9.158;2023-04-06T09:01:12;100041.56;;;18.97;25.94
34177;BME280;20450;49.074;9.158;2023-04-06T09:03:42;100042.09;;;17.43;25.63
34177;BME280;20450;49.074;9.158;2023-04-06T09:06:11;100037.94;;;16.63;26.99
34177;BME280;20450;49.074;9.158;2023-04-06T09:08:40;100040.66;;;15.38;29.05
34177;BME280;20450;49.074;9.158;2023-04-06T09:11:08;100034.09;;;15.27;29.78
34177;BME280;20450;49.074;9.158;2023-04-06T09:13:46;100037.28;;;16.05;29.33
34177;BME280;20450;49.074;9.158;2023-04-06T09:16:27;100028.97;;;16.96;28.37
34177;BME280;20450;49.074;9.158;2023-04-06T09:18:54;100023.00;;;16.82;28.87
34177;BME280;20450;49.074;9.158;2023-04-06T09:21:30;100034.00;;;16.31;26.99
34177;BME280;20450;49.074;9.158;2023-04-06T09:23:58;100021.25;;;16.76;27.70
34177;BME280;20450;49.074;9.158;2023-04-06T09:26:26;100029.69;;;17.41;26.37
34177;BME280;20450;49.074;9.158;2023-04-06T09:28:56;100021.50;;;17.74;26.94
34177;BME280;20450;49.074;9.158;2023-04-06T09:31:27;100019.63;;;18.18;27.27
34177;BME280;20450;49.074;9.158;2023-04-06T09:33:56;100026.06;;;16.30;28.24
34177;BME280;20450;49.074;9.158;2023-04-06T09:36:30;100021.97;;;15.53;29.58
34177;BME280;20450;49.074;9.158;2023-04-06T09:39:00;100025.06;;;14.92;28.99
34177;BME280;20450;49.074;9.158;2023-04-06T09:41:30;100020.78;;;14.44;30.78
34177;BME280;20450;49.074;9.158;2023-04-06T09:44:02;100023.88;;;14.47;32.21
34177;BME280;20450;49.074;9.158;2023-04-06T09:46:35;100023.22;;;14.16;31.93
34177;BME280;20450;49.074;9.158;2023-04-06T09:53:35;100017.25;;;14.96;31.46
34177;BME280;20450;49.074;9.158;2023-04-06T09:56:12;100009.03;;;15.60;28.29
34177;BME280;20450;49.074;9.158;2023-04-06T09:58:50;100014.25;;;15.50;28.67
34177;BME280;20450;49.074;9.158;2023-04-06T10:01:55;100017.69;;;16.20;28.20
34177;BME280;20450;49.074;9.158;2023-04-06T10:04:33;100014.59;;;15.77;30.39
34177;BME280;20450;49.074;9.158;2023-04-06T10:07:06;100007.06;;;16.07;27.71
34177;BME280;20450;49.074;9.158;2023-04-06T10:09:37;100011.19;;;16.09;27.09
34177;BME280;20450;49.074;9.158;2023-04-06T10:12:05;100017.25;;;16.00;27.41
34177;BME280;20450;49.074;9.158;2023-04-06T10:14:33;100000.50;;;17.58;25.56
34177;BME280;20450;49.074;9.158;2023-04-06T10:17:04;100005.47;;;18.26;22.85
34177;BME280;20450;49.074;9.158;2023-04-06T10:19:42;100000.63;;;17.68;23.86
34177;BME280;20450;49.074;9.158;2023-04-06T10:22:24;100005.97;;;17.58;22.88
34177;BME280;20450;49.074;9.158;2023-04-06T10:25:00;99999.19;;;17.27;24.59
34177;BME280;20450;49.074;9.158;2023-04-06T10:27:28;99997.47;;;16.44;24.06
34177;BME280;20450;49.074;9.158;2023-04-06T10:30:01;99994.75;;;17.76;23.54
34177;BME280;20450;49.074;9.158;2023-04-06T10:32:34;100005.94;;;15.56;25.58
34177;BME280;20450;49.074;9.158;2023-04-06T10:35:06;99998.47;;;15.75;24.92
34177;BME280;20450;49.074;9.158;2023-04-06T10:37:51;100000.72;;;15.78;24.85
34177;BME280;20450;49.074;9.158;2023-04-06T10:40:23;99995.28;;;17.23;23.53
34177;BME280;20450;49.074;9.158;2023-04-06T10:42:54;100001.38;;;15.97;24.68
34177;BME280;20450;49.074;9.158;2023-04-06T10:45:23;99988.97;;;16.29;25.37
34177;BME280;20450;49.074;9.158;2023-04-06T10:47:53;99976.28;;;16.95;22.93
34177;BME280;20450;49.074;9.158;2023-04-06T10:50:22;99979.56;;;17.85;22.17
34177;BME280;20450;49.074;9.158;2023-04-06T10:52:59;99985.94;;;18.12;20.25
34177;BME280;20450;49.074;9.158;2023-04-06T10:55:29;99979.19;;;19.31;19.49
34177;BME280;20450;49.074;9.158;2023-04-06T10:57:57;99984.13;;;17.25;21.99
34177;BME280;20450;49.074;9.158;2023-04-06T11:00:24;99982.84;;;18.30;21.84
34177;BME280;20450;49.074;9.158;2023-04-06T11:03:06;99984.75;;;16.49;24.50
34177;BME280;20450;49.074;9.158;2023-04-06T11:05:43;99985.59;;;17.66;22.57
34177;BME280;20450;49.074;9.158;2023-04-06T11:08:22;99982.38;;;18.91;21.01
34177;BME280;20450;49.074;9.158;2023-04-06T11:10:51;99980.41;;;20.02;20.87
34177;BME280;20450;49.074;9.158;2023-04-06T11:13:19;99961.44;;;20.77;19.59
34177;BME280;20450;49.074;9.158;2023-04-06T11:15:46;99967.47;;;21.39;19.99
34177;BME280;20450;49.074;9.158;2023-04-06T11:18:17;99967.38;;;18.67;21.21
34177;BME280;20450;49.074;9.158;2023-04-06T11:20:47;99968.25;;;17.98;23.13
34177;BME280;20450;49.074;9.158;2023-04-06T11:23:22;99968.47;;;16.26;24.95
34177;BME280;20450;49.074;9.158;2023-04-06T11:25:51;99966.66;;;15.18;25.47
34177;BME280;20450;49.074;9.158;2023-04-06T11:28:19;99964.28;;;14.98;26.99
34177;BME280;20450;49.074;9.158;2023-04-06T11:30:46;99958.72;;;15.16;26.54
34177;BME280;20450;49.074;9.158;2023-04-06T11:33:21;99955.78;;;15.52;25.73
34177;BME280;20450;49.074;9.158;2023-04-06T11:35:48;99960.38;;;14.94;25.64
34177;BME280;20450;49.074;9.158;2023-04-06T11:38:18;99950.44;;;16.25;25.69
34177;BME280;20450;49.074;9.158;2023-04-06T11:40:45;99938.53;;;18.28;23.05
34177;BME280;20450;49.074;9.158;2023-04-06T11:43:12;99929.06;;;19.87;21.43
34177;BME280;20450;49.074;9.158;2023-04-06T11:45:41;99929.25;;;20.32;21.07
34177;BME280;20450;49.074;9.158;2023-04-06T11:48:18;99927.66;;;20.91;21.23
34177;BME280;20450;49.074;9.158;2023-04-06T11:50:47;99936.38;;;19.25;20.17
34177;BME280;20450;49.074;9.158;2023-04-06T11:53:14;99928.47;;;18.60;21.64
34177;BME280;20450;49.074;9.158;2023-04-06T11:55:41;99922.28;;;20.00;21.31
34177;BME280;20450;49.074;9.158;2023-04-06T11:58:08;99927.47;;;19.39;21.23
34177;BME280;20450;49.074;9.158;2023-04-06T12:00:37;99919.81;;;17.34;21.95
34177;BME280;20450;49.074;9.158;2023-04-06T12:03:04;99928.50;;;15.76;24.25
34177;BME280;20450;49.074;9.158;2023-04-06T12:05:33;99920.13;;;16.50;24.98
34177;BME280;20450;49.074;9.158;2023-04-06T12:08:02;99924.03;;;16.26;23.80
34177;BME280;20450;49.074;9.158;2023-04-06T12:10:29;99923.19;;;16.70;23.76
34177;BME280;20450;49.074;9.158;2023-04-06T12:12:56;99922.44;;;17.07;23.59
34177;BME280;20450;49.074;9.158;2023-04-06T12:15:23;99916.94;;;16.25;24.02
34177;BME280;20450;49.074;9.158;2023-04-06T12:17:52;99912.88;;;15.71;25.03
34177;BME280;20450;49.074;9.158;2023-04-06T12:20:19;99916.97;;;14.99;26.83
34177;BME280;20450;49.074;9.158;2023-04-06T12:22:53;99914.78;;;13.84;27.24
34177;BME280;20450;49.074;9.158;2023-04-06T12:25:34;99910.03;;;13.80;27.93
34177;BME280;20450;49.074;9.158;2023-04-06T12:28:01;99899.09;;;14.69;27.90
34177;BME280;20450;49.074;9.158;2023-04-06T12:30:28;99904.31;;;15.05;26.47
34177;BME280;20450;49.074;9.158;2023-04-06T12:32:55;99900.97;;;13.86;27.35
34177;BME280;20450;49.074;9.158;2023-04-06T12:35:23;99896.72;;;14.61;27.94
34177;BME280;20450;49.074;9.158;2023-04-06T12:41:09;99887.66;;;16.04;26.64
34177;BME280;20450;49.074;9.158;2023-04-06T12:43:36;99888.28;;;16.39;25.84
34177;BME280;20450;49.074;9.158;2023-04-06T12:46:04;99894.78;;;16.21;25.29
34177;BME280;20450;49.074;9.158;2023-04-06T12:48:31;99893.88;;;14.67;26.88
34177;BME280;20450;49.074;9.158;2023-04-06T12:51:00;99888.91;;;14.53;27.54
34177;BME280;20450;49.074;9.158;2023-04-06T12:53:28;99890.25;;;14.96;27.31
34177;BME280;20450;49.074;9.158;2023-04-06T12:55:56;99884.13;;;15.52;28.00
34177;BME280;20450;49.074;9.158;2023-04-06T12:58:25;99887.06;;;14.99;26.06
34177;BME280;20450;49.074;9.158;2023-04-06T13:00:52;99880.25;;;13.73;27.98
34177;BME280;20450;49.074;9.158;2023-04-06T13:03:20;99882.94;;;13.44;28.27
34177;BME280;20450;49.074;9.158;2023-04-06T13:05:49;99884.06;;;13.36;28.29
34177;BME280;20450;49.074;9.158;2023-04-06T13:08:19;99876.69;;;13.91;28.15
34177;BME280;20450;49.074;9.158;2023-04-06T13:10:47;99877.94;;;14.18;27.60
34177;BME280;20450;49.074;9.158;2023-04-06T13:13:16;99879.09;;;14.40;28.48
34177;BME280;20450;49.074;9.158;2023-04-06T13:15:44;99869.75;;;14.48;28.00
34177;BME280;20450;49.074;9.158;2023-04-06T13:18:11;99873.69;;;14.75;27.70
34177;BME280;20450;49.074;9.158;2023-04-06T13:20:38;99870.34;;;15.07;27.45
34177;BME280;20450;49.074;9.158;2023-04-06T13:23:05;99856.59;;;15.48;27.64
34177;BME280;20450;49.074;9.158;2023-04-06T13:25:33;99863.28;;;14.83;27.57
34177;BME280;20450;49.074;9.158;2023-04-06T13:28:00;99865.38;;;14.47;28.28
34177;BME280;20450;49.074;9.158;2023-04-06T13:30:27;99867.19;;;14.12;28.51
34177;BME280;20450;49.074;9.158;2023-04-06T13:32:56;99862.81;;;13.33;28.58
34177;BME280;20450;49.074;9.158;2023-04-06T13:35:23;99858.50;;;13.44;29.23
34177;BME280;20450;49.074;9.158;2023-04-06T13:37:50;99851.56;;;13.96;28.27
34177;BME280;20450;49.074;9.158;2023-04-06T13:40:18;99856.81;;;14.20;27.61